createdAt,value
2022-12-20T00:00:00.266Z,20
2022-12-20T00:01:00.264Z,22
2022-12-20T00:03:00.445Z,21
2022-12-20T00:04:00.293Z,20
2022-12-20T00:05:00.250Z,21
2022-12-20T00:06:00.243Z,20
2022-12-20T00:07:00.239Z,17
2022-12-20T00:09:00.262Z,15
2022-12-20T00:10:00.251Z,12
2022-12-20T00:12:00.240Z,14
2022-12-20T00:14:00.428Z,15
2022-12-20T00:15:00.248Z,15
2022-12-20T00:16:00.240Z,16
2022-12-20T00:17:00.238Z,15
2022-12-20T00:18:00.426Z,17
2022-12-20T00:19:00.267Z,16
2022-12-20T00:22:00.249Z,14
2022-12-20T00:23:00.243Z,13
2022-12-20T00:24:00.282Z,14
2022-12-20T00:25:00.243Z,13
2022-12-20T00:27:00.253Z,15
2022-12-20T00:30:00.303Z,17
2022-12-20T00:32:00.302Z,18
2022-12-20T00:33:00.251Z,19
2022-12-20T00:35:00.276Z,20
2022-12-20T00:36:00.247Z,19
2022-12-20T00:37:00.246Z,18
2022-12-20T00:39:00.314Z,17
2022-12-20T00:40:00.247Z,15
2022-12-20T00:42:00.253Z,13
2022-12-20T00:43:00.251Z,12
2022-12-20T00:44:00.273Z,14
2022-12-20T00:45:00.256Z,16
2022-12-20T00:46:00.280Z,18
2022-12-20T00:47:00.295Z,19
2022-12-20T00:48:00.250Z,20
2022-12-20T00:50:00.284Z,19
2022-12-20T00:51:00.263Z,17
2022-12-20T00:52:00.255Z,19
2022-12-20T00:53:00.249Z,18
2022-12-20T00:54:00.262Z,16
2022-12-20T00:55:00.289Z,15
2022-12-20T00:57:00.254Z,13
2022-12-20T00:59:00.399Z,14
2022-12-20T01:00:00.286Z,14
2022-12-20T01:01:00.285Z,15
2022-12-20T01:03:00.463Z,17
2022-12-20T01:04:00.259Z,16
2022-12-20T01:06:00.252Z,17
2022-12-20T01:08:00.255Z,16
2022-12-20T01:09:00.268Z,17
2022-12-20T01:10:00.248Z,18
2022-12-20T01:13:00.379Z,20
2022-12-20T01:14:00.251Z,19
2022-12-20T01:15:00.247Z,18
2022-12-20T01:16:00.317Z,17
2022-12-20T01:17:00.364Z,16
2022-12-20T01:18:00.260Z,15
2022-12-20T01:20:00.274Z,17
2022-12-20T01:21:00.258Z,18
2022-12-20T01:22:00.246Z,21
2022-12-20T01:23:00.260Z,23
2022-12-20T01:25:00.249Z,21
2022-12-20T01:26:00.257Z,20
2022-12-20T01:27:00.263Z,17
2022-12-20T01:29:00.346Z,14
2022-12-20T01:30:00.249Z,14
2022-12-20T01:31:00.254Z,16
2022-12-20T01:32:00.329Z,15
2022-12-20T01:33:00.248Z,14
2022-12-20T01:34:00.250Z,15
2022-12-20T01:35:00.250Z,16
2022-12-20T01:36:00.288Z,14
2022-12-20T01:37:00.256Z,15
2022-12-20T01:38:00.255Z,17
2022-12-20T01:40:00.265Z,18
2022-12-20T01:41:00.259Z,19
2022-12-20T01:43:00.313Z,17
2022-12-20T01:45:00.260Z,16
2022-12-20T01:47:00.254Z,15
2022-12-20T01:48:00.259Z,16
2022-12-20T01:49:00.251Z,15
2022-12-20T01:51:00.253Z,16
2022-12-20T01:54:00.342Z,17
2022-12-20T01:57:00.251Z,16
2022-12-20T01:58:00.255Z,15
2022-12-20T01:59:00.253Z,18
2022-12-20T02:00:00.252Z,19
2022-12-20T02:01:00.273Z,17
2022-12-20T02:02:00.480Z,16
2022-12-20T02:03:00.393Z,19
2022-12-20T02:04:00.264Z,17
2022-12-20T02:06:00.254Z,18
2022-12-20T02:07:00.253Z,20
2022-12-20T02:09:00.254Z,19
2022-12-20T02:10:00.279Z,18
2022-12-20T02:12:00.252Z,17
2022-12-20T02:13:00.248Z,15
2022-12-20T02:14:00.253Z,14
2022-12-20T02:15:00.259Z,15
2022-12-20T02:16:00.267Z,16
2022-12-20T02:17:00.297Z,17
2022-12-20T02:18:00.254Z,20
2022-12-20T02:20:00.506Z,21
2022-12-20T02:23:00.252Z,18
2022-12-20T02:24:00.274Z,19
2022-12-20T02:26:00.322Z,18
2022-12-20T02:28:00.256Z,17
2022-12-20T02:29:00.269Z,15
2022-12-20T02:30:00.258Z,16
2022-12-20T02:31:00.287Z,15
2022-12-20T02:33:00.321Z,16
2022-12-20T02:34:00.255Z,17
2022-12-20T02:35:00.252Z,16
2022-12-20T02:39:00.280Z,15
2022-12-20T02:40:00.255Z,17
2022-12-20T02:41:00.271Z,18
2022-12-20T02:44:00.309Z,17
2022-12-20T02:45:00.271Z,16
2022-12-20T02:46:00.364Z,15
2022-12-20T02:47:00.264Z,14
2022-12-20T02:49:00.287Z,15
2022-12-20T02:50:00.258Z,17
2022-12-20T02:52:00.260Z,20
2022-12-20T02:55:00.416Z,18
2022-12-20T02:57:00.259Z,16
2022-12-20T02:58:00.956Z,17
2022-12-20T02:59:00.253Z,18
2022-12-20T03:00:00.285Z,19
2022-12-20T03:05:00.350Z,18
2022-12-20T03:06:00.263Z,17
2022-12-20T03:07:00.265Z,19
2022-12-20T03:08:00.291Z,18
2022-12-20T03:09:00.263Z,17
2022-12-20T03:10:00.261Z,18
2022-12-20T03:11:00.267Z,20
2022-12-20T03:14:00.419Z,19
2022-12-20T03:15:00.268Z,19
2022-12-20T03:17:00.408Z,18
2022-12-20T03:18:00.273Z,15
2022-12-20T03:19:00.291Z,17
2022-12-20T03:21:00.298Z,14
2022-12-20T03:23:00.341Z,16
2022-12-20T03:24:00.292Z,14
2022-12-20T03:26:00.264Z,15
2022-12-20T03:27:00.265Z,16
2022-12-20T03:28:00.266Z,15
2022-12-20T03:30:00.290Z,16
2022-12-20T03:33:00.355Z,14
2022-12-20T03:34:00.291Z,16
2022-12-20T03:35:00.257Z,17
2022-12-20T03:36:00.263Z,16
2022-12-20T03:38:00.265Z,17
2022-12-20T03:40:00.292Z,16
2022-12-20T03:41:00.278Z,17
2022-12-20T03:43:00.384Z,16
2022-12-20T03:45:00.280Z,15
2022-12-20T03:48:00.307Z,16
2022-12-20T03:49:00.309Z,17
2022-12-20T03:50:00.272Z,18
2022-12-20T03:51:00.282Z,19
2022-12-20T03:52:00.263Z,18
2022-12-20T03:53:00.298Z,20
2022-12-20T03:54:00.287Z,19
2022-12-20T03:55:00.264Z,18
2022-12-20T03:56:00.269Z,16
2022-12-20T03:58:00.302Z,14
2022-12-20T03:59:00.268Z,13
2022-12-20T04:00:00.275Z,15
2022-12-20T04:02:00.469Z,17
2022-12-20T04:04:00.450Z,19
2022-12-20T04:06:00.302Z,22
2022-12-20T04:09:00.317Z,21
2022-12-20T04:10:00.297Z,19
2022-12-20T04:11:00.278Z,17
2022-12-20T04:12:00.270Z,16
2022-12-20T04:13:00.291Z,18
2022-12-20T04:15:00.298Z,19
2022-12-20T04:17:00.271Z,18
2022-12-20T04:18:00.280Z,17
2022-12-20T04:19:00.300Z,16
2022-12-20T04:20:00.291Z,15
2022-12-20T04:21:00.278Z,17
2022-12-20T04:22:04.973Z,18
2022-12-20T04:23:00.276Z,19
2022-12-20T04:24:00.772Z,18
2022-12-20T04:25:00.268Z,19
2022-12-20T04:26:00.276Z,18
2022-12-20T04:27:00.306Z,16
2022-12-20T04:28:00.276Z,15
2022-12-20T04:29:00.308Z,16
2022-12-20T04:30:00.272Z,16
2022-12-20T04:33:00.404Z,15
2022-12-20T04:35:00.298Z,14
2022-12-20T04:36:00.274Z,15
2022-12-20T04:38:00.303Z,16
2022-12-20T04:40:00.313Z,17
2022-12-20T04:41:00.272Z,16
2022-12-20T04:42:00.274Z,18
2022-12-20T04:43:00.278Z,21
2022-12-20T04:45:00.326Z,20
2022-12-20T04:47:00.455Z,19
2022-12-20T04:48:09.335Z,16
2022-12-20T04:49:00.440Z,15
2022-12-20T04:50:00.314Z,17
2022-12-20T04:53:00.344Z,18
2022-12-20T04:54:00.307Z,17
2022-12-20T04:55:00.320Z,14
2022-12-20T04:56:00.279Z,15
2022-12-20T04:57:00.277Z,16
2022-12-20T04:58:05.410Z,15
2022-12-20T04:59:00.345Z,16
2022-12-20T05:00:00.314Z,17
2022-12-20T05:03:00.633Z,16
2022-12-20T05:05:00.338Z,17
2022-12-20T05:06:00.287Z,16
2022-12-20T05:07:00.275Z,17
2022-12-20T05:08:00.288Z,18
2022-12-20T05:10:00.338Z,17
2022-12-20T05:11:00.280Z,16
2022-12-20T05:12:00.287Z,15
2022-12-20T05:14:00.344Z,14
2022-12-20T05:15:00.307Z,13
2022-12-20T05:16:00.350Z,15
2022-12-20T05:18:00.288Z,14
2022-12-20T05:19:00.296Z,17
2022-12-20T05:21:00.288Z,15
2022-12-20T05:22:00.280Z,17
2022-12-20T05:23:00.284Z,18
2022-12-20T05:26:00.307Z,19
2022-12-20T05:27:00.283Z,18
2022-12-20T05:28:00.279Z,19
2022-12-20T05:30:00.326Z,20
2022-12-20T05:31:00.315Z,19
2022-12-20T05:32:00.287Z,17
2022-12-20T05:33:00.285Z,16
2022-12-20T05:34:00.373Z,17
2022-12-20T05:35:00.314Z,18
2022-12-20T05:36:00.293Z,19
2022-12-20T05:37:00.282Z,20
2022-12-20T05:38:00.287Z,21
2022-12-20T05:39:04.114Z,19
2022-12-20T05:40:00.364Z,18
2022-12-20T05:41:00.286Z,20
2022-12-20T05:42:00.310Z,18
2022-12-20T05:45:00.466Z,19
2022-12-20T05:46:00.353Z,17
2022-12-20T05:48:00.359Z,16
2022-12-20T05:49:00.286Z,15
2022-12-20T05:50:00.321Z,14
2022-12-20T05:51:00.289Z,15
2022-12-20T05:52:00.288Z,16
2022-12-20T05:54:00.428Z,18
2022-12-20T05:55:00.335Z,19
2022-12-20T05:56:00.293Z,17
2022-12-20T05:57:00.290Z,18
2022-12-20T05:58:00.323Z,19
2022-12-20T05:59:00.291Z,16
2022-12-20T06:00:00.327Z,17
2022-12-20T06:01:00.294Z,19
2022-12-20T06:02:00.455Z,17
2022-12-20T06:04:00.424Z,18
2022-12-20T06:05:00.335Z,17
2022-12-20T06:08:00.293Z,18
2022-12-20T06:11:00.297Z,19
2022-12-20T06:14:00.329Z,18
2022-12-20T06:15:00.360Z,17
2022-12-20T06:17:00.297Z,16
2022-12-20T06:18:00.297Z,17
2022-12-20T06:19:00.299Z,16
2022-12-20T06:22:00.296Z,15
2022-12-20T06:23:00.306Z,14
2022-12-20T06:24:00.299Z,15
2022-12-20T06:26:00.361Z,14
2022-12-20T06:27:00.362Z,15
2022-12-20T06:28:00.367Z,16
2022-12-20T06:29:00.299Z,13
2022-12-20T06:30:00.391Z,16
2022-12-20T06:31:00.364Z,17
2022-12-20T06:32:00.432Z,16
2022-12-20T06:35:00.433Z,15
2022-12-20T06:36:00.303Z,16
2022-12-20T06:37:00.301Z,17
2022-12-20T06:38:00.321Z,18
2022-12-20T06:39:03.364Z,19
2022-12-20T06:40:00.304Z,20
2022-12-20T06:41:00.316Z,19
2022-12-20T06:42:00.302Z,18
2022-12-20T06:44:00.433Z,17
2022-12-20T06:45:00.303Z,16
2022-12-20T06:46:00.448Z,15
2022-12-20T06:47:00.309Z,14
2022-12-20T06:48:00.302Z,15
2022-12-20T06:51:00.304Z,16
2022-12-20T06:53:00.377Z,14
2022-12-20T06:58:00.306Z,15
2022-12-20T07:00:00.326Z,17
2022-12-20T07:01:00.343Z,18
2022-12-20T07:02:00.533Z,19
2022-12-20T07:04:00.316Z,20
2022-12-20T07:05:00.306Z,17
2022-12-20T07:08:00.333Z,19
2022-12-20T07:09:00.369Z,18
2022-12-20T07:10:00.307Z,21
2022-12-20T07:11:00.383Z,20
2022-12-20T07:13:00.372Z,19
2022-12-20T07:14:00.307Z,18
2022-12-20T07:15:00.308Z,17
2022-12-20T07:16:00.441Z,15
2022-12-20T07:17:00.375Z,14
2022-12-20T07:19:00.331Z,15
2022-12-20T07:20:00.303Z,16
2022-12-20T07:21:00.347Z,19
2022-12-20T07:22:00.307Z,18
2022-12-20T07:23:00.311Z,17
2022-12-20T07:24:00.308Z,16
2022-12-20T07:25:00.323Z,15
2022-12-20T07:26:00.784Z,13
2022-12-20T07:27:00.319Z,15
2022-12-20T07:29:00.313Z,17
2022-12-20T07:30:00.364Z,17
2022-12-20T07:31:00.339Z,18
2022-12-20T07:32:00.348Z,17
2022-12-20T07:33:00.324Z,16
2022-12-20T07:35:00.338Z,15
2022-12-20T07:37:00.364Z,16
2022-12-20T07:38:00.311Z,17
2022-12-20T07:43:00.367Z,16
2022-12-20T07:44:00.370Z,15
2022-12-20T07:45:00.335Z,15
2022-12-20T07:47:00.349Z,16
2022-12-20T07:48:05.163Z,15
2022-12-20T07:50:00.311Z,16
2022-12-20T07:51:00.336Z,18
2022-12-20T07:53:00.317Z,20
2022-12-20T07:54:00.314Z,21
2022-12-20T07:55:00.315Z,20
2022-12-20T07:56:00.308Z,18
2022-12-20T07:57:00.385Z,16
2022-12-20T07:58:00.308Z,14
2022-12-20T07:59:00.309Z,15
2022-12-20T08:00:00.409Z,15
2022-12-20T08:02:04.456Z,16
2022-12-20T08:03:00.570Z,15
2022-12-20T08:06:00.316Z,16
2022-12-20T08:10:00.339Z,15
2022-12-20T08:12:00.350Z,16
2022-12-20T08:13:00.312Z,18
2022-12-20T08:14:00.312Z,17
2022-12-20T08:15:00.339Z,18
2022-12-20T08:16:00.313Z,19
2022-12-20T08:17:00.553Z,18
2022-12-20T08:23:00.463Z,16
2022-12-20T08:24:00.316Z,17
2022-12-20T08:25:00.313Z,16
2022-12-20T08:27:00.614Z,17
2022-12-20T08:28:00.318Z,20
2022-12-20T08:29:00.312Z,19
2022-12-20T08:30:00.315Z,19
2022-12-20T08:31:00.413Z,18
2022-12-20T08:33:00.376Z,16
2022-12-20T08:34:00.314Z,14
2022-12-20T08:35:00.315Z,13
2022-12-20T08:36:00.315Z,14
2022-12-20T08:38:00.314Z,15
2022-12-20T08:39:00.315Z,18
2022-12-20T08:40:00.328Z,21
2022-12-20T08:41:00.325Z,20
2022-12-20T08:43:03.670Z,19
2022-12-20T08:44:00.319Z,17
2022-12-20T08:45:00.329Z,16
2022-12-20T08:47:00.346Z,18
2022-12-20T08:48:00.329Z,19
2022-12-20T08:49:00.321Z,20
2022-12-20T08:50:00.317Z,21
2022-12-20T08:52:00.361Z,19
2022-12-20T08:53:00.326Z,16
2022-12-20T08:54:00.323Z,15
2022-12-20T08:55:01.862Z,16
2022-12-20T08:57:00.353Z,17
2022-12-20T08:58:00.319Z,18
2022-12-20T09:00:00.447Z,16
2022-12-20T09:01:04.497Z,15
2022-12-20T09:02:00.467Z,16
2022-12-20T09:04:00.453Z,18
2022-12-20T09:05:00.331Z,20
2022-12-20T09:07:00.355Z,19
2022-12-20T09:08:00.339Z,20
2022-12-20T09:09:00.317Z,18
2022-12-20T09:12:00.354Z,19
2022-12-20T09:13:00.320Z,20
2022-12-20T09:14:00.320Z,21
2022-12-20T09:15:00.319Z,21
2022-12-20T09:16:00.370Z,19
2022-12-20T09:17:00.365Z,18
2022-12-20T09:18:00.319Z,15
2022-12-20T09:20:00.335Z,14
2022-12-20T09:21:00.319Z,15
2022-12-20T09:23:00.387Z,14
2022-12-20T09:24:00.429Z,15
2022-12-20T09:27:00.598Z,16
2022-12-20T09:28:00.323Z,18
2022-12-20T09:30:00.321Z,19
2022-12-20T09:32:00.393Z,18
2022-12-20T09:33:06.951Z,16
2022-12-20T09:34:00.340Z,14
2022-12-20T09:35:00.319Z,15
2022-12-20T09:36:00.325Z,16
2022-12-20T09:38:00.317Z,17
2022-12-20T09:39:00.325Z,19
2022-12-20T09:40:00.404Z,20
2022-12-20T09:41:00.323Z,19
2022-12-20T09:42:00.500Z,20
2022-12-20T09:44:00.452Z,19
2022-12-20T09:45:00.323Z,19
2022-12-20T09:49:00.377Z,17
2022-12-20T09:51:00.325Z,16
2022-12-20T09:53:00.392Z,13
2022-12-20T09:54:00.325Z,14
2022-12-20T09:58:00.334Z,16
2022-12-20T09:59:00.329Z,17
2022-12-20T10:00:00.329Z,16
2022-12-20T10:07:00.516Z,15
2022-12-20T10:08:00.328Z,16
2022-12-20T10:09:00.337Z,15
2022-12-20T10:11:00.330Z,16
2022-12-20T10:13:00.407Z,15
2022-12-20T10:15:00.330Z,15
2022-12-20T10:16:00.404Z,16
2022-12-20T10:18:00.333Z,15
2022-12-20T10:19:00.332Z,17
2022-12-20T10:20:00.330Z,18
2022-12-20T10:21:00.334Z,16
2022-12-20T10:22:00.373Z,18
2022-12-20T10:24:00.455Z,16
2022-12-20T10:26:00.337Z,17
2022-12-20T10:27:00.579Z,15
2022-12-20T10:28:00.336Z,17
2022-12-20T10:29:00.336Z,18
2022-12-20T10:30:00.339Z,17
2022-12-20T10:31:00.358Z,16
2022-12-20T10:32:00.368Z,17
2022-12-20T10:33:00.467Z,16
2022-12-20T10:34:00.589Z,15
2022-12-20T10:35:00.335Z,16
2022-12-20T10:36:00.399Z,17
2022-12-20T10:37:00.412Z,16
2022-12-20T10:39:00.341Z,17
2022-12-20T10:40:05.331Z,16
2022-12-20T11:06:01.076Z,11
2022-12-20T11:07:00.980Z,14
2022-12-20T11:27:00.317Z,17
2022-12-20T11:28:00.496Z,14
2022-12-20T11:29:00.161Z,15
2022-12-20T11:30:00.235Z,17
2022-12-20T11:31:00.221Z,16
2022-12-20T11:32:00.255Z,17
2022-12-20T11:34:00.229Z,16
2022-12-20T11:35:00.191Z,14
2022-12-20T11:36:00.163Z,16
2022-12-20T11:38:04.148Z,17
2022-12-20T11:39:00.161Z,18
2022-12-20T11:40:00.164Z,19
2022-12-20T11:41:00.163Z,17
2022-12-20T11:44:25.083Z,16
2022-12-20T11:45:06.869Z,15
2022-12-20T11:48:00.209Z,14
2022-12-20T11:50:00.168Z,15
2022-12-20T11:53:00.307Z,14
2022-12-20T11:54:00.172Z,16
2022-12-20T11:55:00.163Z,17
2022-12-20T11:56:00.298Z,18
2022-12-20T11:57:00.261Z,17
2022-12-20T11:58:21.595Z,19
2022-12-20T12:00:00.247Z,18
2022-12-20T12:01:00.169Z,17
2022-12-20T12:03:00.442Z,16
2022-12-20T12:06:00.174Z,17
2022-12-20T12:07:00.173Z,18
2022-12-20T12:08:00.223Z,17
2022-12-20T12:09:00.169Z,18
2022-12-20T12:11:00.163Z,15
2022-12-20T12:12:09.016Z,16
2022-12-20T12:14:00.242Z,15
2022-12-20T12:15:00.169Z,15
2022-12-20T12:16:00.285Z,16
2022-12-20T12:17:00.299Z,15
2022-12-20T12:18:00.220Z,17
2022-12-20T12:19:00.243Z,15
2022-12-20T12:20:00.258Z,16
2022-12-20T12:23:00.337Z,15
2022-12-20T12:24:00.218Z,19
2022-12-20T12:25:00.167Z,20
2022-12-20T12:26:00.170Z,19
2022-12-20T12:27:00.170Z,21
2022-12-20T12:28:00.423Z,22
2022-12-20T12:29:00.189Z,20
2022-12-20T12:30:00.315Z,19
2022-12-20T12:31:01.340Z,20
2022-12-20T12:33:00.420Z,19
2022-12-20T12:34:00.178Z,20
2022-12-20T12:35:00.168Z,19
2022-12-20T12:36:00.175Z,21
2022-12-20T12:37:00.196Z,19
2022-12-20T12:38:00.200Z,20
2022-12-20T12:39:02.263Z,19
2022-12-20T12:41:00.181Z,17
2022-12-20T12:42:00.177Z,19
2022-12-20T12:43:00.211Z,18
2022-12-20T12:45:00.192Z,17
2022-12-20T12:48:00.225Z,18
2022-12-20T12:49:00.214Z,17
2022-12-20T12:50:00.238Z,18
2022-12-20T12:51:00.173Z,19
2022-12-20T12:52:00.183Z,17
2022-12-20T12:53:00.203Z,16
2022-12-20T12:55:00.183Z,15
2022-12-20T12:56:13.114Z,16
2022-12-20T12:58:00.204Z,17
2022-12-20T12:59:00.179Z,18
2022-12-20T13:00:00.179Z,18
2022-12-20T13:01:00.220Z,17
2022-12-20T13:03:00.393Z,19
2022-12-20T13:06:00.206Z,18
2022-12-20T13:07:00.180Z,19
2022-12-20T13:08:00.217Z,17
2022-12-20T13:09:00.186Z,15
2022-12-20T13:11:00.186Z,14
2022-12-20T13:12:03.410Z,15
2022-12-20T13:13:00.211Z,14
2022-12-20T13:14:00.191Z,15
2022-12-20T13:15:00.182Z,15
2022-12-20T13:16:00.196Z,16
2022-12-20T13:23:00.326Z,17
2022-12-20T13:24:00.202Z,15
2022-12-20T13:25:00.206Z,14
2022-12-20T13:28:00.624Z,12
2022-12-20T13:29:00.192Z,14
2022-12-20T13:30:00.189Z,15
2022-12-20T13:33:00.242Z,16
2022-12-20T13:36:00.211Z,17
2022-12-20T13:39:00.222Z,18
2022-12-20T13:42:00.190Z,19
2022-12-20T13:44:00.191Z,18
2022-12-20T13:45:00.188Z,19
2022-12-20T13:46:00.256Z,18
2022-12-20T13:47:00.204Z,17
2022-12-20T13:49:00.199Z,16
2022-12-20T13:51:00.191Z,15
2022-12-20T13:52:00.191Z,16
2022-12-20T13:53:00.228Z,15
2022-12-20T13:54:00.220Z,16
2022-12-20T13:55:00.217Z,17
2022-12-20T13:56:00.210Z,19
2022-12-20T13:58:00.243Z,18
2022-12-20T14:00:05.603Z,17
2022-12-20T14:01:00.314Z,16
2022-12-20T14:03:00.511Z,17
2022-12-20T14:04:00.439Z,16
2022-12-20T14:05:00.406Z,18
2022-12-20T14:06:00.198Z,17
2022-12-20T14:07:00.222Z,15
2022-12-20T14:09:00.196Z,17
2022-12-20T14:10:00.195Z,15
2022-12-20T14:11:00.226Z,16
2022-12-20T14:12:00.198Z,19
2022-12-20T14:13:00.233Z,21
2022-12-20T14:14:00.197Z,19
2022-12-20T14:15:00.204Z,17
2022-12-20T14:16:00.216Z,18
2022-12-20T14:17:00.264Z,16
2022-12-20T14:18:00.237Z,15
2022-12-20T14:19:00.200Z,14
2022-12-20T14:20:00.198Z,15
2022-12-20T14:21:00.198Z,16
2022-12-20T14:22:00.198Z,15
2022-12-20T14:24:00.264Z,16
2022-12-20T14:26:00.220Z,18
2022-12-20T14:29:00.225Z,20
2022-12-20T14:30:00.240Z,19
2022-12-20T14:31:00.353Z,17
2022-12-20T14:32:00.201Z,16
2022-12-20T14:34:00.302Z,15
2022-12-20T14:35:00.274Z,17
2022-12-20T14:36:00.200Z,18
2022-12-20T14:39:00.233Z,16
2022-12-20T14:40:00.197Z,14
2022-12-20T14:41:00.199Z,15
2022-12-20T14:43:00.265Z,16
2022-12-20T14:44:00.243Z,18
2022-12-20T14:45:00.221Z,17
2022-12-20T14:46:00.268Z,16
2022-12-20T14:48:00.203Z,15
2022-12-20T14:50:00.234Z,16
2022-12-20T14:51:00.200Z,17
2022-12-20T14:53:00.288Z,18
2022-12-20T14:54:00.239Z,17
2022-12-20T14:57:00.197Z,15
2022-12-20T15:00:00.200Z,14
2022-12-20T15:01:00.223Z,16
2022-12-20T15:02:00.299Z,19
2022-12-20T15:04:00.458Z,18
2022-12-20T15:05:00.204Z,20
2022-12-20T15:06:00.205Z,19
2022-12-20T15:07:00.209Z,18
2022-12-20T15:08:00.204Z,17
2022-12-20T15:09:00.234Z,16
2022-12-20T15:10:00.204Z,15
2022-12-20T15:11:00.235Z,14
2022-12-20T15:12:00.207Z,13
2022-12-20T15:13:00.203Z,15
2022-12-20T15:14:05.236Z,16
2022-12-20T15:15:12.103Z,15
2022-12-20T15:16:00.268Z,17
2022-12-20T15:17:00.235Z,19
2022-12-20T15:20:00.229Z,18
2022-12-20T15:21:00.214Z,17
2022-12-20T15:22:00.221Z,16
2022-12-20T15:24:00.358Z,15
2022-12-20T15:25:00.220Z,14
2022-12-20T15:27:00.209Z,15
2022-12-20T15:28:00.313Z,14
2022-12-20T15:29:00.243Z,17
2022-12-20T15:30:00.200Z,18
2022-12-20T15:31:00.228Z,19
2022-12-20T15:32:00.232Z,18
2022-12-20T15:33:00.232Z,17
2022-12-20T15:34:00.233Z,15
2022-12-20T15:35:00.207Z,16
2022-12-20T15:36:00.210Z,15
2022-12-20T15:38:00.212Z,17
2022-12-20T15:40:00.219Z,19
2022-12-20T15:41:00.208Z,21
2022-12-20T15:42:00.212Z,20
2022-12-20T15:44:00.392Z,18
2022-12-20T15:45:00.209Z,16
2022-12-20T15:47:00.233Z,18
2022-12-20T15:49:00.278Z,19
2022-12-20T15:50:00.211Z,20
2022-12-20T15:51:00.223Z,18
2022-12-20T15:52:00.208Z,17
2022-12-20T15:53:00.223Z,16
2022-12-20T15:54:00.245Z,15
2022-12-20T15:56:00.216Z,16
2022-12-20T15:57:00.208Z,15
2022-12-20T16:00:01.982Z,16
2022-12-20T16:01:00.211Z,17
2022-12-20T16:03:00.533Z,16
2022-12-20T16:04:00.337Z,17
2022-12-20T16:05:00.298Z,15
2022-12-20T16:06:00.217Z,13
2022-12-20T16:07:00.307Z,15
2022-12-20T16:09:00.276Z,13
2022-12-20T16:10:00.225Z,15
2022-12-20T16:11:00.229Z,17
2022-12-20T16:12:00.215Z,15
2022-12-20T16:13:00.234Z,16
2022-12-20T16:14:00.253Z,17
2022-12-20T16:15:00.224Z,16
2022-12-20T16:17:00.287Z,17
2022-12-20T16:19:00.371Z,19
2022-12-20T16:20:00.227Z,18
2022-12-20T16:21:00.240Z,16
2022-12-20T16:22:00.212Z,15
2022-12-20T16:23:00.211Z,14
2022-12-20T16:24:00.263Z,12
2022-12-20T16:26:00.217Z,14
2022-12-20T16:27:00.214Z,13
2022-12-20T16:28:00.222Z,14
2022-12-20T16:29:00.462Z,16
2022-12-20T16:30:00.222Z,16
2022-12-20T16:31:00.259Z,17
2022-12-20T16:32:00.295Z,18
2022-12-20T16:34:00.245Z,17
2022-12-20T16:35:00.214Z,16
2022-12-20T16:36:00.210Z,14
2022-12-20T16:37:00.260Z,15
2022-12-20T16:39:00.255Z,14
2022-12-20T16:40:00.225Z,17
2022-12-20T16:41:00.215Z,18
2022-12-20T16:42:00.224Z,17
2022-12-20T16:44:00.347Z,18
2022-12-20T16:45:00.223Z,15
2022-12-20T16:46:00.236Z,14
2022-12-20T16:50:00.256Z,15
2022-12-20T16:51:00.222Z,18
2022-12-20T16:52:00.227Z,20
2022-12-20T17:17:00.847Z,14
2022-12-20T17:18:00.636Z,18
2022-12-20T17:19:00.646Z,17
2022-12-20T17:20:00.657Z,19
2022-12-20T17:21:00.641Z,18
2022-12-20T17:24:00.702Z,19
2022-12-20T17:25:00.710Z,16
2022-12-20T17:27:00.650Z,17
2022-12-20T17:28:00.646Z,16
2022-12-20T17:29:00.643Z,15
2022-12-20T17:30:00.835Z,17
2022-12-20T17:34:00.802Z,18
2022-12-20T17:37:00.650Z,17
2022-12-20T17:40:00.716Z,19
2022-12-20T17:43:00.724Z,18
2022-12-20T17:44:00.723Z,20
2022-12-20T17:45:00.651Z,17
2022-12-20T17:46:00.857Z,19
2022-12-20T17:47:00.730Z,20
2022-12-20T17:48:00.704Z,19
2022-12-20T17:49:00.781Z,18
2022-12-20T17:50:00.793Z,19
2022-12-20T17:51:00.819Z,17
2022-12-20T17:52:00.647Z,16
2022-12-20T17:53:00.651Z,18
2022-12-20T17:54:00.714Z,19
2022-12-20T17:55:00.719Z,17
2022-12-20T17:56:00.813Z,18
2022-12-20T17:59:03.794Z,17
2022-12-20T18:00:01.761Z,17
2022-12-20T18:01:00.782Z,18
2022-12-20T18:02:00.890Z,19
2022-12-20T18:03:00.791Z,18
2022-12-20T18:06:05.898Z,19
2022-12-20T18:07:00.722Z,20
2022-12-20T18:08:00.651Z,18
2022-12-20T18:09:00.656Z,20
2022-12-20T18:10:00.733Z,21
2022-12-20T18:11:00.681Z,19
2022-12-20T18:12:00.651Z,17
2022-12-20T18:13:00.650Z,19
2022-12-20T18:14:00.653Z,17
2022-12-20T18:15:00.725Z,16
2022-12-20T18:16:00.695Z,17
2022-12-20T18:17:00.803Z,18
2022-12-20T18:18:00.655Z,19
2022-12-20T18:19:00.720Z,18
2022-12-20T18:20:00.653Z,19
2022-12-20T18:21:00.789Z,18
2022-12-20T18:23:00.811Z,16
2022-12-20T18:25:00.656Z,15
2022-12-20T18:26:00.690Z,14
2022-12-20T18:27:00.727Z,12
2022-12-20T18:30:00.660Z,12
2022-12-20T18:31:00.826Z,13
2022-12-20T18:32:00.780Z,14
2022-12-20T18:33:01.745Z,15
2022-12-20T18:34:00.797Z,16
2022-12-20T18:36:00.797Z,18
2022-12-20T18:37:00.720Z,17
2022-12-20T18:40:00.688Z,18
2022-12-20T18:41:00.725Z,16
2022-12-20T18:43:05.707Z,15
2022-12-20T18:44:00.655Z,16
2022-12-20T18:45:00.658Z,16
2022-12-20T18:46:00.731Z,19
2022-12-20T18:48:00.661Z,20
2022-12-20T18:49:00.730Z,18
2022-12-20T18:51:00.691Z,17
2022-12-20T18:52:00.735Z,18
2022-12-20T18:53:01.632Z,16
2022-12-20T18:54:00.894Z,17
2022-12-20T18:56:00.732Z,16
2022-12-20T18:57:00.672Z,17
2022-12-20T18:58:00.663Z,18
2022-12-20T18:59:04.754Z,17
2022-12-20T19:00:00.660Z,17
2022-12-20T19:01:00.726Z,18
2022-12-20T19:04:00.735Z,19
2022-12-20T19:05:00.664Z,18
2022-12-20T19:06:00.702Z,16
2022-12-20T19:08:00.664Z,15
2022-12-20T19:09:00.736Z,14
2022-12-20T19:10:00.777Z,15
2022-12-20T19:11:00.696Z,17
2022-12-20T19:15:00.830Z,15
2022-12-20T19:16:00.822Z,14
2022-12-20T19:19:00.662Z,15
2022-12-20T19:20:00.677Z,16
2022-12-20T19:21:00.698Z,17
2022-12-20T19:23:00.726Z,16
2022-12-20T19:24:00.663Z,14
2022-12-20T19:26:04.880Z,15
2022-12-20T19:28:00.672Z,16
2022-12-20T19:29:00.685Z,18
2022-12-20T19:30:00.686Z,19
2022-12-20T19:33:00.914Z,18
2022-12-20T19:34:00.673Z,17
2022-12-20T19:37:00.804Z,18
2022-12-20T19:38:00.669Z,17
2022-12-20T19:39:00.745Z,18
2022-12-20T19:40:00.665Z,16
2022-12-20T19:41:00.665Z,15
2022-12-20T19:42:22.731Z,13
2022-12-20T19:43:00.656Z,15
2022-12-20T19:44:00.683Z,17
2022-12-20T19:45:00.667Z,18
2022-12-20T19:46:00.765Z,20
2022-12-20T19:47:03.843Z,21
2022-12-20T19:49:00.806Z,18
2022-12-20T19:51:00.670Z,17
2022-12-20T19:52:00.708Z,18
2022-12-20T19:53:00.737Z,19
2022-12-20T19:54:00.664Z,18
2022-12-20T19:57:00.709Z,17
2022-12-20T19:58:00.668Z,14
2022-12-20T20:00:00.667Z,12
2022-12-20T20:03:00.935Z,14
2022-12-20T20:04:00.766Z,15
2022-12-20T20:05:00.704Z,18
2022-12-20T20:06:00.664Z,17
2022-12-20T20:07:00.735Z,18
2022-12-20T20:09:00.704Z,17
2022-12-20T20:10:00.664Z,15
2022-12-20T20:15:00.763Z,15
2022-12-20T20:18:00.667Z,16
2022-12-20T20:19:00.733Z,18
2022-12-20T20:20:00.704Z,19
2022-12-20T20:21:00.688Z,18
2022-12-20T20:24:00.835Z,17
2022-12-20T20:26:00.751Z,18
2022-12-20T20:27:00.734Z,17
2022-12-20T20:28:00.671Z,16
2022-12-20T20:30:00.868Z,15
2022-12-20T20:32:00.667Z,16
2022-12-20T20:34:00.785Z,17
2022-12-20T20:35:00.673Z,18
2022-12-20T20:36:00.671Z,17
2022-12-20T20:37:00.691Z,16
2022-12-20T20:38:00.676Z,18
2022-12-20T20:40:00.694Z,16
2022-12-20T20:41:00.670Z,17
2022-12-20T20:42:00.667Z,19
2022-12-20T20:43:00.668Z,17
2022-12-20T20:44:00.809Z,16
2022-12-20T20:45:00.672Z,19
2022-12-20T20:50:00.705Z,16
2022-12-20T20:51:00.779Z,15
2022-12-20T20:53:00.817Z,16
2022-12-20T20:56:00.668Z,15
2022-12-20T20:57:00.689Z,16
2022-12-20T20:58:00.681Z,15
2022-12-20T20:59:05.218Z,16
2022-12-20T21:00:00.730Z,17
2022-12-20T21:01:00.705Z,18
2022-12-20T21:02:00.809Z,17
2022-12-20T21:03:00.912Z,18
2022-12-20T21:04:00.790Z,17
2022-12-20T21:05:47.423Z,16
2022-12-20T21:06:36.812Z,17
2022-12-20T21:08:00.653Z,16
2022-12-20T21:09:00.695Z,17
2022-12-20T21:11:00.824Z,16
2022-12-20T21:12:00.893Z,17
2022-12-20T21:14:00.731Z,16
2022-12-20T21:37:00.891Z,13
2022-12-20T21:38:00.733Z,17
2022-12-20T21:39:00.740Z,16
2022-12-20T21:40:00.746Z,15